Time;durP1;ratioP1;P1;durP2;ratioP2;P2;SDS_P1;SDS_P2;PMS_P1;PMS_P2;Temp;Humidity;BMP_temperature;BMP_pressure;BME280_temperature;BME280_humidity;BME280_pressure;Samples;Min_cycle;Max_cycle;Signal;HPM_P1;HPM_P2
2022/02/24 00:00:05;;;;;;;5.57;5.07;;;;;;;;;;5038424;28;20624;-58
2022/02/24 00:02:31;;;;;;;5.40;4.90;;;;;;;;;;5036759;28;20049;-59
2022/02/24 00:04:57;;;;;;;5.90;5.30;;;;;;;;;;5035596;28;20040;-58
2022/02/24 00:07:22;;;;;;;5.38;4.88;;;;;;;;;;5038296;28;20029;-58
2022/02/24 00:09:47;;;;;;;5.28;4.82;;;;;;;;;;5036333;28;20467;-58
2022/02/24 00:12:13;;;;;;;6.93;4.78;;;;;;;;;;5036134;28;20057;-59
2022/02/24 00:14:38;;;;;;;7.65;4.63;;;;;;;;;;5035057;28;20036;-58
2022/02/24 00:17:04;;;;;;;5.00;4.60;;;;;;;;;;5039067;28;20033;-58
2022/02/24 00:19:30;;;;;;;4.68;4.28;;;;;;;;;;5040395;28;20389;-58
2022/02/24 00:21:56;;;;;;;5.50;5.00;;;;;;;;;;5037949;28;20079;-58
2022/02/24 00:24:22;;;;;;;5.05;4.65;;;;;;;;;;5037724;28;20037;-58
2022/02/24 00:26:47;;;;;;;5.63;5.18;;;;;;;;;;5036998;28;20120;-58
2022/02/24 00:29:12;;;;;;;4.75;4.35;;;;;;;;;;5035808;28;20140;-58
2022/02/24 00:31:38;;;;;;;4.60;4.20;;;;;;;;;;5035875;28;20040;-58
2022/02/24 00:34:03;;;;;;;4.75;4.35;;;;;;;;;;5040190;28;20029;-58
2022/02/24 00:36:28;;;;;;;4.88;4.47;;;;;;;;;;5036406;28;20033;-58
2022/02/24 00:38:54;;;;;;;8.20;4.50;;;;;;;;;;5036643;28;20436;-58
2022/02/24 00:41:19;;;;;;;5.10;4.68;;;;;;;;;;5041339;28;20029;-58
2022/02/24 00:43:45;;;;;;;5.60;5.10;;;;;;;;;;5036554;28;20082;-58
2022/02/24 00:46:10;;;;;;;4.28;3.92;;;;;;;;;;5039335;28;20033;-58
2022/02/24 00:48:36;;;;;;;4.78;4.38;;;;;;;;;;5037552;28;20377;-58
2022/02/24 00:51:01;;;;;;;4.78;4.38;;;;;;;;;;5038719;28;20036;-59
2022/02/24 00:53:26;;;;;;;4.15;3.85;;;;;;;;;;5039930;28;20025;-58
2022/02/24 00:55:52;;;;;;;5.13;4.72;;;;;;;;;;5040812;28;20033;-58
2022/02/24 00:58:17;;;;;;;4.05;3.75;;;;;;;;;;5035937;28;20045;-58
2022/02/24 01:00:43;;;;;;;4.68;4.28;;;;;;;;;;5037125;28;20048;-58
2022/02/24 01:03:08;;;;;;;4.32;3.92;;;;;;;;;;5039597;28;20037;-59
2022/02/24 01:05:34;;;;;;;5.95;4.38;;;;;;;;;;5039389;28;20048;-58
2022/02/24 01:07:59;;;;;;;4.82;4.43;;;;;;;;;;5035447;28;20052;-58
2022/02/24 01:10:25;;;;;;;5.88;5.38;;;;;;;;;;5032877;28;20037;-58
2022/02/24 01:12:50;;;;;;;9.95;4.65;;;;;;;;;;5037192;28;20041;-58
2022/02/24 01:15:15;;;;;;;4.65;4.25;;;;;;;;;;5038085;28;20386;-57
2022/02/24 01:17:42;;;;;;;6.38;4.82;;;;;;;;;;5037735;28;20037;-58
2022/02/24 01:20:08;;;;;;;5.50;5.00;;;;;;;;;;5033356;28;20037;-58
2022/02/24 01:22:34;;;;;;;6.18;5.57;;;;;;;;;;5033911;28;20094;-58
2022/02/24 01:25:00;;;;;;;6.75;4.65;;;;;;;;;;5033615;28;20405;-57
2022/02/24 01:27:25;;;;;;;6.03;5.53;;;;;;;;;;5033624;28;20628;-57
2022/02/24 01:29:51;;;;;;;5.25;4.85;;;;;;;;;;5033634;28;20052;-57
2022/02/24 01:32:17;;;;;;;5.28;4.65;;;;;;;;;;5034939;28;20051;-58
2022/02/24 01:34:43;;;;;;;5.05;4.65;;;;;;;;;;5036518;28;20029;-59
2022/02/24 01:37:08;;;;;;;6.80;6.18;;;;;;;;;;5033627;28;20037;-59
2022/02/24 01:39:34;;;;;;;4.88;4.45;;;;;;;;;;5035884;28;20077;-58
2022/02/24 01:42:00;;;;;;;5.82;4.88;;;;;;;;;;5029704;28;20029;-59
2022/02/24 01:44:25;;;;;;;4.90;4.38;;;;;;;;;;5033157;28;20068;-59
2022/02/24 01:46:51;;;;;;;5.50;5.00;;;;;;;;;;5049707;28;20060;-59
2022/02/24 01:49:20;;;;;;;5.97;5.40;;;;;;;;;;5034793;28;20037;-59
2022/02/24 01:51:47;;;;;;;4.97;4.57;;;;;;;;;;5033591;28;20547;-59
2022/02/24 01:54:12;;;;;;;6.18;5.57;;;;;;;;;;5032810;28;20037;-59
2022/02/24 01:56:38;;;;;;;5.90;4.22;;;;;;;;;;5034065;28;20083;-59
2022/02/24 01:59:04;;;;;;;4.80;4.35;;;;;;;;;;5035429;28;20048;-58
2022/02/24 02:01:29;;;;;;;5.90;4.55;;;;;;;;;;5035155;28;20033;-59
2022/02/24 02:03:55;;;;;;;5.35;4.60;;;;;;;;;;5032604;28;20033;-59
2022/02/24 02:06:22;;;;;;;9.65;5.20;;;;;;;;;;5034542;28;20076;-60
2022/02/24 02:08:48;;;;;;;5.32;4.90;;;;;;;;;;5034919;28;20116;-59
2022/02/24 02:11:13;;;;;;;5.05;4.65;;;;;;;;;;5035439;28;20037;-59
2022/02/24 02:13:39;;;;;;;6.03;5.05;;;;;;;;;;5034123;28;20440;-59
2022/02/24 02:16:07;;;;;;;4.72;4.32;;;;;;;;;;5037682;28;20064;-59
2022/02/24 02:18:33;;;;;;;6.10;5.55;;;;;;;;;;5035278;28;20029;-59
2022/02/24 02:20:59;;;;;;;4.97;4.55;;;;;;;;;;5034004;28;20029;-58
2022/02/24 02:23:24;;;;;;;7.07;5.03;;;;;;;;;;5036965;28;20029;-59
2022/02/24 02:25:49;;;;;;;5.60;5.10;;;;;;;;;;5034820;28;20444;-59
2022/02/24 02:28:16;;;;;;;3.67;3.38;;;;;;;;;;5033428;28;20025;-58
2022/02/24 02:30:43;;;;;;;4.25;3.85;;;;;;;;;;5035638;28;20043;-57
2022/02/24 02:33:09;;;;;;;15.82;5.80;;;;;;;;;;5036113;28;20037;-58
2022/02/24 02:35:36;;;;;;;4.78;4.38;;;;;;;;;;5035505;28;20078;-58
2022/02/24 02:38:02;;;;;;;4.93;4.53;;;;;;;;;;5034107;28;20037;-58
2022/02/24 02:40:28;;;;;;;4.25;3.85;;;;;;;;;;5033257;28;20083;-58
2022/02/24 02:42:54;;;;;;;5.38;4.88;;;;;;;;;;5035388;28;20511;-58
2022/02/24 02:45:19;;;;;;;5.72;4.10;;;;;;;;;;5034635;28;20040;-57
2022/02/24 02:47:45;;;;;;;5.07;4.68;;;;;;;;;;5035551;28;20029;-57
2022/02/24 02:50:11;;;;;;;5.13;4.63;;;;;;;;;;5036800;28;20036;-58
2022/02/24 02:52:37;;;;;;;5.20;4.47;;;;;;;;;;5035469;28;20123;-59
2022/02/24 02:55:12;;;;;;;5.30;4.80;;;;;;;;;;5035790;28;20025;-59
2022/02/24 02:57:39;;;;;;;5.18;4.72;;;;;;;;;;5031734;28;20036;-58
2022/02/24 03:00:10;;;;;;;7.05;5.88;;;;;;;;;;5032856;28;20203;-58
2022/02/24 03:02:36;;;;;;;16.25;4.47;;;;;;;;;;5034959;28;20120;-60
2022/02/24 03:05:02;;;;;;;3.58;3.28;;;;;;;;;;5036559;28;20411;-58
2022/02/24 03:07:28;;;;;;;5.32;4.82;;;;;;;;;;5034657;28;20045;-58
2022/02/24 03:09:53;;;;;;;5.88;5.32;;;;;;;;;;5040453;28;20229;-59
2022/02/24 03:12:18;;;;;;;7.40;4.85;;;;;;;;;;5038145;28;20108;-59
2022/02/24 03:14:46;;;;;;;5.88;5.38;;;;;;;;;;5036169;28;20041;-58
2022/02/24 03:17:12;;;;;;;4.38;3.97;;;;;;;;;;5036285;28;20037;-57
2022/02/24 03:19:37;;;;;;;5.13;4.72;;;;;;;;;;5036468;28;20352;-57
2022/02/24 03:22:10;;;;;;;4.85;4.45;;;;;;;;;;5035908;28;20036;-58
2022/02/24 03:24:36;;;;;;;4.32;3.95;;;;;;;;;;5031647;28;20079;-57
2022/02/24 03:27:02;;;;;;;5.80;5.30;;;;;;;;;;5034146;28;20123;-57
2022/02/24 03:29:28;;;;;;;4.40;4.00;;;;;;;;;;5034650;28;20039;-58
2022/02/24 03:31:53;;;;;;;7.70;5.47;;;;;;;;;;5035793;28;20037;-57
2022/02/24 03:34:19;;;;;;;5.30;4.80;;;;;;;;;;5032584;28;20090;-57
2022/02/24 03:36:44;;;;;;;5.72;5.13;;;;;;;;;;5036593;28;20037;-56
2022/02/24 03:39:10;;;;;;;4.90;4.50;;;;;;;;;;5034031;28;20049;-57
2022/02/24 03:41:35;;;;;;;6.00;4.97;;;;;;;;;;5035444;28;20020;-56
2022/02/24 03:44:00;;;;;;;5.00;4.57;;;;;;;;;;5033428;28;20037;-57
2022/02/24 03:46:26;;;;;;;5.15;4.75;;;;;;;;;;5035735;28;20041;-57
2022/02/24 03:48:51;;;;;;;6.80;5.40;;;;;;;;;;5033910;28;20624;-57
2022/02/24 03:51:17;;;;;;;6.07;5.25;;;;;;;;;;5035652;28;20025;-57
2022/02/24 03:53:43;;;;;;;5.55;4.90;;;;;;;;;;5031019;28;20033;-57
2022/02/24 03:56:09;;;;;;;6.15;4.57;;;;;;;;;;5033186;28;20489;-57
2022/02/24 03:58:34;;;;;;;6.00;5.50;;;;;;;;;;5034929;28;20026;-57
2022/02/24 04:01:00;;;;;;;5.25;4.57;;;;;;;;;;5034248;28;20731;-57
2022/02/24 04:03:25;;;;;;;5.65;5.18;;;;;;;;;;5035279;28;20068;-57
2022/02/24 04:05:51;;;;;;;5.68;5.15;;;;;;;;;;5036164;28;20454;-57
2022/02/24 04:08:17;;;;;;;15.02;4.47;;;;;;;;;;5033044;28;20021;-57
2022/02/24 04:10:43;;;;;;;4.88;4.40;;;;;;;;;;5035165;28;20037;-58
2022/02/24 04:13:08;;;;;;;10.13;5.38;;;;;;;;;;5035287;28;20060;-57
2022/02/24 04:15:36;;;;;;;5.20;4.70;;;;;;;;;;5033384;28;20124;-58
2022/02/24 04:18:01;;;;;;;4.80;4.40;;;;;;;;;;5038266;28;20048;-57
2022/02/24 04:20:27;;;;;;;5.15;4.75;;;;;;;;;;5036837;28;20029;-59
2022/02/24 04:22:52;;;;;;;5.15;4.65;;;;;;;;;;5035680;28;20032;-58
2022/02/24 04:25:18;;;;;;;5.63;5.03;;;;;;;;;;5037615;28;20467;-58
2022/02/24 04:27:48;;;;;;;5.25;4.82;;;;;;;;;;5034764;28;20037;-58
2022/02/24 04:30:14;;;;;;;5.78;5.20;;;;;;;;;;5037614;28;20098;-59
2022/02/24 04:32:40;;;;;;;4.80;4.38;;;;;;;;;;5035480;28;20052;-59
2022/02/24 04:35:06;;;;;;;5.57;5.07;;;;;;;;;;5033479;28;20039;-59
2022/02/24 04:37:31;;;;;;;5.38;4.57;;;;;;;;;;5034156;28;20120;-58
2022/02/24 04:39:57;;;;;;;5.75;4.80;;;;;;;;;;5038899;28;20113;-59
2022/02/24 04:42:22;;;;;;;4.60;4.10;;;;;;;;;;5039370;28;20030;-59
2022/02/24 04:44:47;;;;;;;7.65;4.93;;;;;;;;;;5037523;28;20127;-59
2022/02/24 04:47:13;;;;;;;4.82;4.43;;;;;;;;;;5040698;28;20032;-59
2022/02/24 04:49:38;;;;;;;5.88;5.38;;;;;;;;;;5038679;28;20029;-59
2022/02/24 04:52:04;;;;;;;6.85;5.95;;;;;;;;;;5038116;28;20075;-59
2022/02/24 04:54:29;;;;;;;4.20;3.80;;;;;;;;;;5034981;28;20285;-59
2022/02/24 04:56:55;;;;;;;5.80;4.88;;;;;;;;;;5039402;28;20116;-59
2022/02/24 04:59:20;;;;;;;5.43;4.93;;;;;;;;;;5038964;28;20103;-59
2022/02/24 05:01:45;;;;;;;7.70;5.57;;;;;;;;;;5037680;28;20064;-59
2022/02/24 05:04:11;;;;;;;5.38;4.88;;;;;;;;;;5033230;28;20039;-59
2022/02/24 05:06:36;;;;;;;4.03;3.63;;;;;;;;;;5036302;28;20080;-59
2022/02/24 05:09:02;;;;;;;6.80;4.20;;;;;;;;;;5033982;28;20044;-59
2022/02/24 05:11:28;;;;;;;6.07;4.93;;;;;;;;;;5039011;28;20048;-59
2022/02/24 05:13:53;;;;;;;5.32;4.88;;;;;;;;;;5035642;28;20410;-60
2022/02/24 05:16:18;;;;;;;11.70;5.43;;;;;;;;;;5041739;28;20033;-59
2022/02/24 05:18:44;;;;;;;4.97;4.38;;;;;;;;;;5036818;28;20813;-59
2022/02/24 05:21:09;;;;;;;6.53;5.18;;;;;;;;;;5034951;28;20461;-58
2022/02/24 05:23:36;;;;;;;8.95;5.10;;;;;;;;;;5033161;28;20025;-59
2022/02/24 05:26:02;;;;;;;8.43;4.97;;;;;;;;;;5039555;28;20033;-59
2022/02/24 05:28:28;;;;;;;4.95;4.40;;;;;;;;;;5034947;28;20025;-59
2022/02/24 05:30:59;;;;;;;4.60;4.20;;;;;;;;;;5032194;28;20430;-59
2022/02/24 05:33:25;;;;;;;7.95;4.97;;;;;;;;;;5038983;28;20043;-59
2022/02/24 05:35:51;;;;;;;4.80;4.40;;;;;;;;;;5037847;28;20102;-59
2022/02/24 05:38:16;;;;;;;5.05;4.60;;;;;;;;;;5034253;28;20033;-59
2022/02/24 05:40:42;;;;;;;4.18;3.80;;;;;;;;;;5032565;28;20391;-59
2022/02/24 05:43:07;;;;;;;13.20;6.28;;;;;;;;;;5039044;28;20037;-60
2022/02/24 05:45:32;;;;;;;5.28;4.85;;;;;;;;;;5038200;28;20068;-60
2022/02/24 05:47:58;;;;;;;6.15;5.55;;;;;;;;;;5033350;28;20705;-59
2022/02/24 05:50:23;;;;;;;5.25;4.40;;;;;;;;;;5032818;28;20033;-59
2022/02/24 05:52:49;;;;;;;5.53;4.93;;;;;;;;;;5034865;28;20041;-58
2022/02/24 05:55:14;;;;;;;6.38;5.03;;;;;;;;;;5034803;28;20103;-58
2022/02/24 05:57:44;;;;;;;6.72;5.78;;;;;;;;;;5038612;28;20574;-58
2022/02/24 06:00:10;;;;;;;5.85;5.25;;;;;;;;;;5033182;28;20042;-58
2022/02/24 06:02:36;;;;;;;6.05;5.55;;;;;;;;;;5034467;28;20036;-58
2022/02/24 06:05:01;;;;;;;5.50;5.05;;;;;;;;;;5036065;28;20029;-58
2022/02/24 06:07:27;;;;;;;4.93;4.47;;;;;;;;;;5035118;28;20529;-57
2022/02/24 06:09:52;;;;;;;7.72;4.90;;;;;;;;;;5032899;28;20461;-58
2022/02/24 06:12:18;;;;;;;5.10;4.60;;;;;;;;;;5032458;28;20466;-58
2022/02/24 06:14:44;;;;;;;6.90;4.60;;;;;;;;;;5030735;28;20048;-58
2022/02/24 06:17:09;;;;;;;5.05;4.60;;;;;;;;;;5033675;28;20021;-58
2022/02/24 06:19:35;;;;;;;4.43;4.03;;;;;;;;;;5034620;28;20359;-58
2022/02/24 06:22:00;;;;;;;5.43;4.65;;;;;;;;;;5031766;28;20051;-58
2022/02/24 06:24:26;;;;;;;5.38;4.90;;;;;;;;;;5031196;28;20485;-58
2022/02/24 06:26:51;;;;;;;7.90;5.65;;;;;;;;;;5033430;28;20025;-59
2022/02/24 06:29:17;;;;;;;5.25;4.75;;;;;;;;;;5032044;28;20483;-59
2022/02/24 06:31:42;;;;;;;5.30;4.80;;;;;;;;;;5033486;28;20056;-59
2022/02/24 06:34:07;;;;;;;6.03;5.43;;;;;;;;;;5033563;28;20049;-59
2022/02/24 06:36:33;;;;;;;5.78;5.28;;;;;;;;;;5033634;28;20056;-59
2022/02/24 06:38:58;;;;;;;5.65;5.15;;;;;;;;;;5034071;28;20473;-59
2022/02/24 06:41:25;;;;;;;5.93;5.05;;;;;;;;;;5034340;28;20025;-59
2022/02/24 06:43:50;;;;;;;5.55;5.00;;;;;;;;;;5035668;28;20025;-58
2022/02/24 06:46:18;;;;;;;6.70;5.43;;;;;;;;;;5030808;28;20095;-59
2022/02/24 06:48:46;;;;;;;4.88;4.47;;;;;;;;;;5032104;28;20036;-59
2022/02/24 06:51:12;;;;;;;5.28;4.80;;;;;;;;;;5035020;28;20386;-60
2022/02/24 06:53:38;;;;;;;9.68;4.53;;;;;;;;;;5035218;28;20033;-59
2022/02/24 06:56:04;;;;;;;5.90;5.30;;;;;;;;;;5035326;28;20033;-59
2022/02/24 06:58:29;;;;;;;4.95;4.55;;;;;;;;;;5031062;28;20029;-59
2022/02/24 07:00:55;;;;;;;5.75;5.20;;;;;;;;;;5036264;28;20127;-59
2022/02/24 07:03:20;;;;;;;4.10;3.80;;;;;;;;;;5034109;28;20056;-59
2022/02/24 07:05:46;;;;;;;5.28;4.78;;;;;;;;;;5032736;28;20033;-59
2022/02/24 07:08:11;;;;;;;4.65;4.25;;;;;;;;;;5034808;28;20087;-58
2022/02/24 07:10:37;;;;;;;4.72;4.32;;;;;;;;;;5031446;28;20056;-58
2022/02/24 07:13:02;;;;;;;6.53;5.20;;;;;;;;;;5030276;28;20033;-59
2022/02/24 07:15:28;;;;;;;5.25;4.68;;;;;;;;;;5030435;28;20029;-59
2022/02/24 07:17:53;;;;;;;5.18;4.70;;;;;;;;;;5027481;28;20452;-59
2022/02/24 07:20:19;;;;;;;4.97;4.50;;;;;;;;;;5031526;28;20051;-59
2022/02/24 07:22:45;;;;;;;5.43;4.93;;;;;;;;;;5033980;28;20045;-59
2022/02/24 07:25:12;;;;;;;5.78;5.18;;;;;;;;;;5033716;28;20033;-59
2022/02/24 07:27:38;;;;;;;4.45;3.97;;;;;;;;;;5033812;28;20065;-59
2022/02/24 07:30:05;;;;;;;4.85;4.35;;;;;;;;;;5035647;28;20052;-59
2022/02/24 07:32:32;;;;;;;6.07;4.53;;;;;;;;;;5033096;28;20041;-59
2022/02/24 07:34:58;;;;;;;4.15;3.75;;;;;;;;;;5035537;28;20159;-59
2022/02/24 07:37:24;;;;;;;5.45;4.95;;;;;;;;;;5032745;28;20033;-59
2022/02/24 07:39:49;;;;;;;5.57;5.07;;;;;;;;;;5032765;28;20048;-59
2022/02/24 07:42:17;;;;;;;5.45;4.95;;;;;;;;;;5036098;28;20284;-59
2022/02/24 07:44:44;;;;;;;4.28;3.88;;;;;;;;;;5033534;28;20037;-58
2022/02/24 07:47:10;;;;;;;4.72;4.32;;;;;;;;;;5034268;28;20459;-58
2022/02/24 07:49:36;;;;;;;4.18;3.78;;;;;;;;;;5033728;28;20032;-59
2022/02/24 07:52:01;;;;;;;4.70;4.30;;;;;;;;;;5034006;28;20117;-58
2022/02/24 07:54:27;;;;;;;5.28;4.78;;;;;;;;;;5037566;28;20037;-58
2022/02/24 07:56:52;;;;;;;4.65;4.25;;;;;;;;;;5038910;28;20029;-58
2022/02/24 07:59:20;;;;;;;5.45;4.95;;;;;;;;;;5041945;28;20052;-58
2022/02/24 08:01:46;;;;;;;14.43;5.28;;;;;;;;;;5039990;28;20485;-58
2022/02/24 08:04:11;;;;;;;5.85;5.00;;;;;;;;;;5035888;28;20074;-58
2022/02/24 08:06:36;;;;;;;4.85;4.40;;;;;;;;;;5038841;28;20074;-58
2022/02/24 08:09:05;;;;;;;5.30;4.80;;;;;;;;;;5036978;28;20036;-59
2022/02/24 08:11:31;;;;;;;4.22;3.83;;;;;;;;;;5038922;28;20040;-59
2022/02/24 08:13:57;;;;;;;4.93;4.43;;;;;;;;;;5033690;28;20022;-58
2022/02/24 08:16:22;;;;;;;5.57;5.03;;;;;;;;;;5039787;28;20097;-58
2022/02/24 08:18:47;;;;;;;5.10;4.65;;;;;;;;;;5034859;28;20504;-59
2022/02/24 08:21:13;;;;;;;5.40;4.63;;;;;;;;;;5035974;28;20076;-59
2022/02/24 08:23:38;;;;;;;4.53;4.13;;;;;;;;;;5035258;28;20060;-58
2022/02/24 08:26:03;;;;;;;5.97;5.38;;;;;;;;;;5038592;28;20135;-58
2022/02/24 08:28:29;;;;;;;4.80;4.40;;;;;;;;;;5036821;28;20025;-58
2022/02/24 08:30:54;;;;;;;6.22;4.70;;;;;;;;;;5039193;28;20036;-58
2022/02/24 08:33:20;;;;;;;4.97;4.10;;;;;;;;;;5038985;28;20043;-58
2022/02/24 08:35:45;;;;;;;6.53;5.43;;;;;;;;;;5037813;28;20651;-58
2022/02/24 08:38:11;;;;;;;4.85;4.40;;;;;;;;;;5038084;28;20037;-59
2022/02/24 08:40:37;;;;;;;4.88;4.45;;;;;;;;;;5036087;28;20107;-59
2022/02/24 08:43:02;;;;;;;5.65;5.10;;;;;;;;;;5037280;28;20021;-58
2022/02/24 08:45:29;;;;;;;10.15;4.97;;;;;;;;;;5038244;28;20550;-58
2022/02/24 08:47:54;;;;;;;4.63;4.22;;;;;;;;;;5032963;28;20051;-58
2022/02/24 08:50:20;;;;;;;5.05;4.53;;;;;;;;;;5039156;28;20116;-58
2022/02/24 08:52:45;;;;;;;4.57;4.18;;;;;;;;;;5037172;28;20037;-58
2022/02/24 08:55:11;;;;;;;4.50;4.10;;;;;;;;;;5035214;28;20539;-59
2022/02/24 08:57:36;;;;;;;5.10;4.40;;;;;;;;;;5035159;28;20032;-58
2022/02/24 09:00:06;;;;;;;5.38;4.88;;;;;;;;;;5038438;28;20905;-58
2022/02/24 09:02:31;;;;;;;5.75;5.03;;;;;;;;;;5037518;28;20047;-59
2022/02/24 09:04:57;;;;;;;4.85;4.38;;;;;;;;;;5037344;28;20112;-58
2022/02/24 09:07:22;;;;;;;7.65;5.10;;;;;;;;;;5038404;28;20757;-58
2022/02/24 09:09:48;;;;;;;4.97;4.53;;;;;;;;;;5037420;28;20037;-58
2022/02/24 09:12:13;;;;;;;4.85;4.45;;;;;;;;;;5040592;28;20041;-58
2022/02/24 09:14:38;;;;;;;4.95;4.50;;;;;;;;;;5038006;28;20025;-58
2022/02/24 09:17:04;;;;;;;6.68;4.97;;;;;;;;;;5037063;28;20033;-58
2022/02/24 09:19:31;;;;;;;5.25;4.82;;;;;;;;;;5036482;28;20029;-58
2022/02/24 09:21:56;;;;;;;4.90;4.50;;;;;;;;;;5033859;28;20474;-58
2022/02/24 09:24:22;;;;;;;5.15;4.75;;;;;;;;;;5036616;28;20044;-58
2022/02/24 09:26:48;;;;;;;5.03;4.55;;;;;;;;;;5037037;28;20025;-58
2022/02/24 09:29:14;;;;;;;8.05;4.53;;;;;;;;;;5034394;28;20036;-58
2022/02/24 09:31:40;;;;;;;5.03;4.63;;;;;;;;;;5035741;28;20371;-60
2022/02/24 09:34:06;;;;;;;4.90;4.50;;;;;;;;;;5037895;28;20103;-59
2022/02/24 09:36:32;;;;;;;5.05;4.57;;;;;;;;;;5036293;28;20069;-59
2022/02/24 09:38:57;;;;;;;4.68;4.28;;;;;;;;;;5037710;28;20478;-59
2022/02/24 09:41:23;;;;;;;5.22;4.72;;;;;;;;;;5036902;28;20648;-58
2022/02/24 09:43:50;;;;;;;5.10;4.70;;;;;;;;;;5036827;28;20471;-58
2022/02/24 09:46:16;;;;;;;5.30;4.80;;;;;;;;;;5036260;28;20036;-58
2022/02/24 09:48:43;;;;;;;5.60;5.10;;;;;;;;;;5035747;28;20036;-59
2022/02/24 09:51:14;;;;;;;5.22;4.72;;;;;;;;;;5026307;28;20034;-59
2022/02/24 09:53:41;;;;;;;5.57;5.07;;;;;;;;;;5033863;28;20077;-58
2022/02/24 09:56:13;;;;;;;5.45;5.05;;;;;;;;;;5035949;28;20034;-59
2022/02/24 09:58:38;;;;;;;5.25;4.75;;;;;;;;;;5033192;28;20487;-59
2022/02/24 10:01:04;;;;;;;7.10;5.72;;;;;;;;;;5033308;28;20053;-58
2022/02/24 10:03:32;;;;;;;8.15;5.32;;;;;;;;;;5036024;28;20459;-59
2022/02/24 10:06:00;;;;;;;7.00;4.80;;;;;;;;;;5035165;28;20021;-59
2022/02/24 10:08:31;;;;;;;5.95;5.28;;;;;;;;;;5036545;28;20033;-59
2022/02/24 10:10:58;;;;;;;5.65;5.05;;;;;;;;;;5040084;28;20115;-59
2022/02/24 10:13:24;;;;;;;5.95;5.18;;;;;;;;;;5033259;28;20086;-59
2022/02/24 10:16:00;;;;;;;5.97;4.90;;;;;;;;;;5035207;28;20108;-59
2022/02/24 10:18:28;;;;;;;6.10;5.53;;;;;;;;;;5035529;28;20052;-59
2022/02/24 10:20:57;;;;;;;5.72;4.82;;;;;;;;;;5038519;28;20028;-59
2022/02/24 10:23:39;;;;;;;4.97;4.57;;;;;;;;;;5035902;28;20336;-59
2022/02/24 10:26:10;;;;;;;5.70;5.20;;;;;;;;;;5037266;28;20034;-59
2022/02/24 10:28:50;;;;;;;5.70;5.30;;;;;;;;;;5036101;28;20455;-59
2022/02/24 10:31:19;;;;;;;6.00;5.50;;;;;;;;;;5037489;28;20044;-59
2022/02/24 10:33:48;;;;;;;5.75;5.22;;;;;;;;;;5034596;28;20037;-59
2022/02/24 10:36:16;;;;;;;5.88;5.22;;;;;;;;;;5034194;28;20506;-59
2022/02/24 10:38:58;;;;;;;5.78;5.28;;;;;;;;;;5034889;28;20050;-59
2022/02/24 10:41:46;;;;;;;6.93;5.88;;;;;;;;;;5037568;28;20090;-59
2022/02/24 10:44:12;;;;;;;5.47;5.00;;;;;;;;;;5035671;28;20052;-58
2022/02/24 10:46:38;;;;;;;5.38;4.88;;;;;;;;;;5037919;28;20409;-59
2022/02/24 10:49:03;;;;;;;4.72;4.32;;;;;;;;;;5037474;28;20045;-58
2022/02/24 10:51:34;;;;;;;5.32;4.82;;;;;;;;;;5034629;28;20040;-59
2022/02/24 10:54:07;;;;;;;;;;;;;;;;;;5032223;28;20065;-59
2022/02/24 10:56:35;;;;;;;5.00;4.50;;;;;;;;;;5035970;28;20370;-59
2022/02/24 10:59:01;;;;;;;4.70;4.30;;;;;;;;;;5035775;28;20349;-59
2022/02/24 11:01:29;;;;;;;5.75;5.25;;;;;;;;;;5034299;28;20036;-59
2022/02/24 11:03:58;;;;;;;9.52;6.85;;;;;;;;;;5036412;28;20033;-59
2022/02/24 11:06:27;;;;;;;5.88;5.38;;;;;;;;;;5032817;28;20053;-59
2022/02/24 11:08:55;;;;;;;5.00;4.60;;;;;;;;;;5033459;28;20025;-58
2022/02/24 11:11:25;;;;;;;5.40;4.85;;;;;;;;;;5034210;28;20044;-58
2022/02/24 11:13:52;;;;;;;5.75;5.25;;;;;;;;;;5035963;28;20356;-58
2022/02/24 11:16:18;;;;;;;5.30;4.90;;;;;;;;;;5032643;28;20059;-58
2022/02/24 11:18:44;;;;;;;5.05;4.65;;;;;;;;;;5031684;28;20029;-59
2022/02/24 11:21:15;;;;;;;5.95;5.45;;;;;;;;;;5033741;28;20052;-59
2022/02/24 11:23:46;;;;;;;5.93;5.43;;;;;;;;;;5036137;28;20123;-58
2022/02/24 11:26:20;;;;;;;6.00;5.30;;;;;;;;;;5039420;28;20038;-58
2022/02/24 11:29:10;;;;;;;7.80;5.30;;;;;;;;;;5035801;28;20736;-58
2022/02/24 11:31:42;;;;;;;6.45;5.93;;;;;;;;;;5037921;28;20238;-59
2022/02/24 11:34:07;;;;;;;4.50;4.10;;;;;;;;;;5040877;28;20068;-59
2022/02/24 11:36:41;;;;;;;6.15;5.25;;;;;;;;;;5043572;28;20064;-59
2022/02/24 11:39:11;;;;;;;4.68;4.28;;;;;;;;;;5036784;28;20466;-58
2022/02/24 11:41:45;;;;;;;5.68;5.18;;;;;;;;;;5037762;28;20323;-59
2022/02/24 11:44:29;;;;;;;5.15;4.75;;;;;;;;;;5041072;28;20037;-59
2022/02/24 11:46:59;;;;;;;5.05;4.65;;;;;;;;;;5035649;28;20049;-58
2022/02/24 11:49:56;;;;;;;5.80;5.30;;;;;;;;;;5035579;28;20108;-59
2022/02/24 11:52:42;;;;;;;5.25;4.72;;;;;;;;;;5037624;28;20080;-59
2022/02/24 11:55:46;;;;;;;5.25;4.75;;;;;;;;;;5037114;28;20063;-59
2022/02/24 11:58:38;;;;;;;4.90;4.50;;;;;;;;;;5037411;28;20041;-59
2022/02/24 12:01:22;;;;;;;4.30;3.95;;;;;;;;;;5036582;28;20044;-59
2022/02/24 12:03:48;;;;;;;5.45;4.95;;;;;;;;;;5039176;28;20174;-59
2022/02/24 12:06:18;;;;;;;5.25;4.75;;;;;;;;;;5039214;28;20124;-59
2022/02/24 12:09:02;;;;;;;5.30;4.57;;;;;;;;;;5038231;28;20359;-59
2022/02/24 12:11:30;;;;;;;4.70;4.30;;;;;;;;;;5039366;28;20491;-59
2022/02/24 12:13:56;;;;;;;4.93;4.53;;;;;;;;;;5039668;28;20044;-60
2022/02/24 12:16:24;;;;;;;4.60;4.20;;;;;;;;;;5033584;28;20049;-60
2022/02/24 12:18:51;;;;;;;4.47;4.07;;;;;;;;;;5030339;28;20041;-61
2022/02/24 12:21:37;;;;;;;4.65;4.25;;;;;;;;;;5033394;28;20659;-59
2022/02/24 12:24:11;;;;;;;4.30;3.92;;;;;;;;;;5030690;28;20116;-60
2022/02/24 12:26:43;;;;;;;4.80;4.38;;;;;;;;;;5030037;28;20030;-60
2022/02/24 12:29:36;;;;;;;4.63;4.22;;;;;;;;;;5031004;28;20168;-59
2022/02/24 12:32:06;;;;;;;4.70;4.30;;;;;;;;;;5033421;28;20135;-59
2022/02/24 12:34:34;;;;;;;4.85;4.40;;;;;;;;;;5031947;28;20040;-59
2022/02/24 12:37:13;;;;;;;4.70;4.30;;;;;;;;;;5032933;28;20034;-59
2022/02/24 12:39:40;;;;;;;4.28;3.95;;;;;;;;;;5038108;28;20033;-59
2022/02/24 12:42:13;;;;;;;4.78;4.13;;;;;;;;;;5035454;28;20037;-59
2022/02/24 12:44:42;;;;;;;5.00;4.60;;;;;;;;;;5036499;28;20044;-59
2022/02/24 12:47:07;;;;;;;4.88;4.47;;;;;;;;;;5035839;28;20056;-59
2022/02/24 12:49:54;;;;;;;4.15;3.75;;;;;;;;;;5033548;28;20743;-59
2022/02/24 12:52:22;;;;;;;4.80;4.40;;;;;;;;;;5035377;28;20040;-59
2022/02/24 12:54:47;;;;;;;4.00;3.70;;;;;;;;;;5035232;28;20033;-63
2022/02/24 12:57:13;;;;;;;4.03;3.72;;;;;;;;;;5038904;28;20028;-60
2022/02/24 12:59:39;;;;;;;4.60;4.20;;;;;;;;;;5034904;28;20356;-59
2022/02/24 13:02:05;;;;;;;3.90;3.60;;;;;;;;;;5036640;28;20033;-59
2022/02/24 13:04:34;;;;;;;9.85;4.43;;;;;;;;;;5037643;28;20037;-59
2022/02/24 13:07:00;;;;;;;4.95;4.55;;;;;;;;;;5035835;28;20472;-58
2022/02/24 13:09:44;;;;;;;4.38;3.97;;;;;;;;;;5038177;28;20030;-59
2022/02/24 13:12:12;;;;;;;4.93;4.53;;;;;;;;;;5038662;28;20116;-59
2022/02/24 13:14:38;;;;;;;4.90;4.50;;;;;;;;;;5033856;28;20029;-59
2022/02/24 13:17:08;;;;;;;4.72;4.32;;;;;;;;;;5035684;28;20632;-60
2022/02/24 13:19:36;;;;;;;4.50;4.10;;;;;;;;;;5036885;28;20124;-59
2022/02/24 13:22:03;;;;;;;5.05;4.55;;;;;;;;;;5033173;28;20179;-60
2022/02/24 13:24:35;;;;;;;4.97;4.50;;;;;;;;;;5034922;28;20033;-60
2022/02/24 13:27:03;;;;;;;4.50;4.10;;;;;;;;;;5037608;28;20060;-60
2022/02/24 13:29:29;;;;;;;4.32;3.92;;;;;;;;;;5033809;28;21031;-60
2022/02/24 13:32:10;;;;;;;4.35;4.05;;;;;;;;;;5036936;28;20378;-59
2022/02/24 13:34:37;;;;;;;4.05;3.65;;;;;;;;;;5034931;28;20127;-60
2022/02/24 13:37:04;;;;;;;4.93;4.53;;;;;;;;;;5037954;28;20056;-60
2022/02/24 13:39:37;;;;;;;4.38;4.00;;;;;;;;;;5038157;28;20056;-60
2022/02/24 13:42:04;;;;;;;4.32;3.92;;;;;;;;;;5033987;28;20517;-60
2022/02/24 13:44:40;;;;;;;4.47;4.10;;;;;;;;;;5029732;28;20124;-60
2022/02/24 13:47:09;;;;;;;4.13;3.83;;;;;;;;;;5035008;28;20124;-60
2022/02/24 13:49:41;;;;;;;4.65;4.25;;;;;;;;;;5035041;28;20039;-59
2022/02/24 13:52:32;;;;;;;4.90;4.50;;;;;;;;;;5033572;28;20041;-59
2022/02/24 13:55:00;;;;;;;3.70;3.40;;;;;;;;;;5034657;28;20032;-60
2022/02/24 13:57:26;;;;;;;4.60;4.20;;;;;;;;;;5030065;28;20056;-59
2022/02/24 14:00:07;;;;;;;4.25;3.95;;;;;;;;;;5029560;28;20068;-59
2022/02/24 14:02:33;;;;;;;3.92;3.63;;;;;;;;;;5028484;28;20037;-61
2022/02/24 14:05:06;;;;;;;4.50;4.10;;;;;;;;;;5031614;28;20037;-61
2022/02/24 14:07:31;;;;;;;4.22;3.85;;;;;;;;;;5030973;28;20045;-62
2022/02/24 14:10:06;;;;;;;3.78;3.47;;;;;;;;;;5030573;28;20032;-60
2022/02/24 14:12:32;;;;;;;3.88;3.58;;;;;;;;;;5025492;28;20477;-61
2022/02/24 14:14:57;;;;;;;3.85;3.55;;;;;;;;;;5027889;28;20045;-61
2022/02/24 14:17:23;;;;;;;4.40;4.00;;;;;;;;;;5026820;28;20045;-60
2022/02/24 14:19:48;;;;;;;4.05;3.75;;;;;;;;;;5030354;28;20622;-60
2022/02/24 14:22:13;;;;;;;4.53;4.13;;;;;;;;;;5028622;28;20107;-60
2022/02/24 14:24:39;;;;;;;4.53;4.18;;;;;;;;;;5027354;28;20036;-61
2022/02/24 14:27:04;;;;;;;4.07;3.78;;;;;;;;;;5027372;28;20475;-60
2022/02/24 14:29:30;;;;;;;4.45;4.05;;;;;;;;;;5029661;28;20109;-59
2022/02/24 14:31:55;;;;;;;4.00;3.70;;;;;;;;;;5027811;28;20033;-59
2022/02/24 14:34:21;;;;;;;3.90;3.60;;;;;;;;;;5027064;28;20029;-59
2022/02/24 14:36:47;;;;;;;4.30;4.00;;;;;;;;;;5025025;28;20040;-60
2022/02/24 14:39:12;;;;;;;4.10;3.80;;;;;;;;;;5033055;28;20518;-59
2022/02/24 14:41:38;;;;;;;4.50;4.13;;;;;;;;;;5035674;28;20711;-59
2022/02/24 14:44:03;;;;;;;4.13;3.83;;;;;;;;;;5034956;28;20059;-59